Time;durP1;ratioP1;P1;durP2;ratioP2;P2;SDS_P1;SDS_P2;PMS_P1;PMS_P2;Temp;Humidity;BMP_temperature;BMP_pressure;BME280_temperature;BME280_humidity;BME280_pressure;Samples;Min_cycle;Max_cycle;Signal;HPM_P1;HPM_P2
2022/05/06 00:01:39;;;;;;;2.90;1.77;;;;;;;;;;4956627;28;20039;-57
2022/05/06 00:04:06;;;;;;;4.22;1.60;;;;;;;;;;4958397;28;20043;-57
2022/05/06 00:06:32;;;;;;;6.88;1.60;;;;;;;;;;4963499;28;20650;-57
2022/05/06 00:08:58;;;;;;;4.60;1.88;;;;;;;;;;4961839;28;20030;-57
2022/05/06 00:11:25;;;;;;;4.72;1.83;;;;;;;;;;4965381;28;20090;-57
2022/05/06 00:13:52;;;;;;;7.05;2.63;;;;;;;;;;4971457;28;20030;-57
2022/05/06 00:16:19;;;;;;;4.13;1.85;;;;;;;;;;4962846;28;20065;-57
2022/05/06 00:18:45;;;;;;;5.65;2.03;;;;;;;;;;4963255;28;20153;-57
2022/05/06 00:21:11;;;;;;;6.40;1.85;;;;;;;;;;4960172;28;20685;-58
2022/05/06 00:23:36;;;;;;;4.63;1.98;;;;;;;;;;4966069;28;20233;-57
2022/05/06 00:26:03;;;;;;;3.58;1.92;;;;;;;;;;4966118;28;20094;-57
2022/05/06 00:28:30;;;;;;;6.10;2.38;;;;;;;;;;4963631;28;20030;-57
2022/05/06 00:30:56;;;;;;;4.55;2.05;;;;;;;;;;4965320;28;20034;-57
2022/05/06 00:33:24;;;;;;;8.25;2.15;;;;;;;;;;4962368;28;20034;-57
2022/05/06 00:36:02;;;;;;;7.78;1.85;;;;;;;;;;4967420;28;20134;-57
2022/05/06 00:38:27;;;;;;;6.35;2.05;;;;;;;;;;4964343;28;20087;-57
2022/05/06 00:40:54;;;;;;;5.28;2.42;;;;;;;;;;4964907;28;20038;-57
2022/05/06 00:43:20;;;;;;;5.65;2.78;;;;;;;;;;4965375;28;20030;-57
2022/05/06 00:45:52;;;;;;;7.53;2.25;;;;;;;;;;4960175;28;20035;-57
2022/05/06 00:48:19;;;;;;;5.10;2.77;;;;;;;;;;4973142;28;20042;-57
2022/05/06 00:50:45;;;;;;;6.53;2.20;;;;;;;;;;4960184;28;20701;-57
2022/05/06 00:53:12;;;;;;;8.52;2.70;;;;;;;;;;4970645;28;20038;-57
2022/05/06 00:55:38;;;;;;;7.07;2.25;;;;;;;;;;4966865;28;20058;-57
2022/05/06 00:58:04;;;;;;;7.63;2.70;;;;;;;;;;4957124;28;20130;-57
2022/05/06 01:00:30;;;;;;;5.95;2.78;;;;;;;;;;4963511;28;20054;-57
2022/05/06 01:02:56;;;;;;;12.10;2.75;;;;;;;;;;4958051;28;20035;-58
2022/05/06 01:05:25;;;;;;;8.05;3.65;;;;;;;;;;4964064;28;20445;-57
2022/05/06 01:07:52;;;;;;;10.75;3.15;;;;;;;;;;4966641;28;20117;-58
2022/05/06 01:10:21;;;;;;;9.80;2.50;;;;;;;;;;4954231;28;20046;-57
2022/05/06 01:12:48;;;;;;;9.00;3.22;;;;;;;;;;4991183;28;20021;-57
2022/05/06 01:15:21;;;;;;;6.50;2.65;;;;;;;;;;4983706;28;20024;-57
2022/05/06 01:17:48;;;;;;;8.20;2.58;;;;;;;;;;4984273;28;20026;-57
2022/05/06 01:20:17;;;;;;;10.45;3.58;;;;;;;;;;4984885;28;20034;-57
2022/05/06 01:22:48;;;;;;;6.97;2.35;;;;;;;;;;4987516;28;20412;-58
2022/05/06 01:25:14;;;;;;;11.88;2.50;;;;;;;;;;4980727;28;20031;-57
2022/05/06 01:27:55;;;;;;;4.72;2.38;;;;;;;;;;4985524;28;20027;-57
2022/05/06 01:30:42;;;;;;;8.02;2.30;;;;;;;;;;4976649;28;20129;-56
2022/05/06 01:33:10;;;;;;;8.95;2.40;;;;;;;;;;4965829;28;20555;-57
2022/05/06 01:35:45;;;;;;;7.15;2.40;;;;;;;;;;4987513;28;20045;-57
2022/05/06 01:38:16;;;;;;;6.65;2.75;;;;;;;;;;4967982;28;20026;-57
2022/05/06 01:40:47;;;;;;;6.07;2.60;;;;;;;;;;4970733;28;20030;-57
2022/05/06 01:43:14;;;;;;;11.30;2.72;;;;;;;;;;4983890;28;20125;-57
2022/05/06 01:45:42;;;;;;;8.07;2.75;;;;;;;;;;4972736;28;20702;-57
2022/05/06 01:48:09;;;;;;;6.38;2.63;;;;;;;;;;4985770;28;20104;-57
2022/05/06 01:50:39;;;;;;;9.98;3.10;;;;;;;;;;4982373;28;20031;-57
2022/05/06 01:53:07;;;;;;;6.03;2.80;;;;;;;;;;4988531;28;20041;-57
2022/05/06 01:55:33;;;;;;;5.13;2.42;;;;;;;;;;4979010;28;20038;-57
2022/05/06 01:57:59;;;;;;;3.95;2.47;;;;;;;;;;4980529;28;20038;-57
2022/05/06 02:00:24;;;;;;;8.43;3.00;;;;;;;;;;4992817;28;20436;-57
2022/05/06 02:02:50;;;;;;;13.40;3.63;;;;;;;;;;4984976;28;20030;-56
2022/05/06 02:05:19;;;;;;;9.23;3.17;;;;;;;;;;4988145;28;20065;-57
2022/05/06 02:07:49;;;;;;;6.05;2.10;;;;;;;;;;4995818;28;20512;-57
2022/05/06 02:10:16;;;;;;;3.42;2.30;;;;;;;;;;4972163;28;20047;-57
2022/05/06 02:12:42;;;;;;;4.70;2.15;;;;;;;;;;4992255;28;20033;-57
2022/05/06 02:15:10;;;;;;;7.05;2.60;;;;;;;;;;4987683;28;20113;-57
2022/05/06 02:17:38;;;;;;;8.48;2.35;;;;;;;;;;4989141;28;20037;-57
2022/05/06 02:20:05;;;;;;;20.02;2.97;;;;;;;;;;4985759;28;20567;-57
2022/05/06 02:22:31;;;;;;;11.98;2.40;;;;;;;;;;4995111;28;20614;-57
2022/05/06 02:24:57;;;;;;;5.60;2.53;;;;;;;;;;4987338;28;20069;-57
2022/05/06 02:27:22;;;;;;;6.75;2.65;;;;;;;;;;4985045;28;20513;-57
2022/05/06 02:35:16;;;;;;;6.03;2.60;;;;;;;;;;4986090;28;20536;-57
2022/05/06 02:37:42;;;;;;;8.10;2.63;;;;;;;;;;4982862;28;20128;-57
2022/05/06 02:40:09;;;;;;;6.07;2.72;;;;;;;;;;4981678;28;20613;-57
2022/05/06 02:42:36;;;;;;;7.93;2.65;;;;;;;;;;4992524;28;20117;-57
2022/05/06 02:45:02;;;;;;;5.90;2.45;;;;;;;;;;4987177;28;20562;-57
2022/05/06 02:47:29;;;;;;;7.25;3.50;;;;;;;;;;4983798;28;20030;-57
2022/05/06 02:49:54;;;;;;;8.68;2.75;;;;;;;;;;4978069;28;20051;-57
2022/05/06 02:52:20;;;;;;;9.68;3.17;;;;;;;;;;4982967;28;20088;-57
2022/05/06 02:54:46;;;;;;;5.97;2.72;;;;;;;;;;4988526;28;20573;-57
2022/05/06 02:57:11;;;;;;;8.40;2.97;;;;;;;;;;4981025;28;20065;-57
2022/05/06 02:59:39;;;;;;;5.93;2.65;;;;;;;;;;4978417;28;20026;-57
2022/05/06 03:02:05;;;;;;;4.50;2.58;;;;;;;;;;4987607;28;20158;-57
2022/05/06 03:04:31;;;;;;;4.82;2.40;;;;;;;;;;4985955;28;20065;-57
2022/05/06 03:06:58;;;;;;;5.72;2.50;;;;;;;;;;4983545;28;20042;-57
2022/05/06 03:09:24;;;;;;;5.00;2.25;;;;;;;;;;4993049;28;20473;-57
2022/05/06 03:11:49;;;;;;;6.25;2.20;;;;;;;;;;4988436;28;20149;-56
2022/05/06 03:14:15;;;;;;;8.90;2.28;;;;;;;;;;4979317;28;20581;-57
2022/05/06 03:16:40;;;;;;;11.30;2.58;;;;;;;;;;4978835;28;20033;-57
2022/05/06 03:19:06;;;;;;;11.75;2.75;;;;;;;;;;4975259;28;20040;-57
2022/05/06 03:21:32;;;;;;;6.30;2.28;;;;;;;;;;4986331;28;20796;-57
2022/05/06 03:23:58;;;;;;;7.45;2.40;;;;;;;;;;4972668;28;20118;-57
2022/05/06 03:26:24;;;;;;;9.15;2.58;;;;;;;;;;4982041;28;20496;-57
2022/05/06 03:28:52;;;;;;;5.85;2.83;;;;;;;;;;4983148;28;20037;-57
2022/05/06 03:31:18;;;;;;;6.00;2.20;;;;;;;;;;4984446;28;20033;-57
2022/05/06 03:33:44;;;;;;;5.95;2.30;;;;;;;;;;4979453;28;20058;-57
2022/05/06 03:36:09;;;;;;;8.32;2.33;;;;;;;;;;4965900;28;20113;-57
2022/05/06 03:38:35;;;;;;;4.45;2.13;;;;;;;;;;4982686;28;20077;-57
2022/05/06 03:41:01;;;;;;;7.32;2.45;;;;;;;;;;4976647;28;20030;-57
2022/05/06 03:43:30;;;;;;;10.05;2.33;;;;;;;;;;4989553;28;20050;-57
2022/05/06 03:45:55;;;;;;;5.25;3.00;;;;;;;;;;4984655;28;21642;-57
2022/05/06 03:48:24;;;;;;;7.43;2.60;;;;;;;;;;4981651;28;20036;-57
2022/05/06 03:53:38;;;;;;;9.48;2.58;;;;;;;;;;4988532;28;20530;-57
2022/05/06 03:56:04;;;;;;;10.30;2.83;;;;;;;;;;4985743;28;20034;-57
2022/05/06 03:58:30;;;;;;;7.32;2.78;;;;;;;;;;4974577;28;20588;-57
2022/05/06 04:00:56;;;;;;;8.20;2.53;;;;;;;;;;4971729;28;20042;-57
2022/05/06 04:03:21;;;;;;;10.48;2.70;;;;;;;;;;4968909;28;20030;-57
2022/05/06 04:05:47;;;;;;;5.53;2.42;;;;;;;;;;4977646;28;20481;-57
2022/05/06 04:08:12;;;;;;;6.03;2.67;;;;;;;;;;4981111;28;20256;-57
2022/05/06 04:10:38;;;;;;;7.53;2.67;;;;;;;;;;4964118;28;20053;-57
2022/05/06 04:13:04;;;;;;;7.20;2.45;;;;;;;;;;4965209;28;20149;-57
2022/05/06 04:15:32;;;;;;;6.30;2.28;;;;;;;;;;4964622;28;20023;-56
2022/05/06 04:17:58;;;;;;;8.13;2.70;;;;;;;;;;4965458;28;20832;-58
2022/05/06 04:25:51;;;;;;;10.23;2.78;;;;;;;;;;4964554;28;20615;-59
2022/05/06 04:28:17;;;;;;;6.15;1.95;;;;;;;;;;4969319;28;20062;-58
2022/05/06 04:30:42;;;;;;;4.88;1.80;;;;;;;;;;4968403;28;20089;-58
2022/05/06 04:33:08;;;;;;;6.97;1.90;;;;;;;;;;4946327;28;20105;-58
2022/05/06 04:35:34;;;;;;;6.07;2.00;;;;;;;;;;4965069;28;20078;-58
2022/05/06 04:38:00;;;;;;;5.57;2.13;;;;;;;;;;4963821;28;20584;-57
2022/05/06 04:40:26;;;;;;;4.75;1.67;;;;;;;;;;4946990;28;20046;-57
2022/05/06 04:42:51;;;;;;;7.25;1.85;;;;;;;;;;4969488;28;20113;-57
2022/05/06 04:45:17;;;;;;;5.80;1.73;;;;;;;;;;4963537;28;20411;-57
2022/05/06 04:47:42;;;;;;;4.22;1.65;;;;;;;;;;4960035;28;20035;-56
2022/05/06 04:50:08;;;;;;;3.28;1.45;;;;;;;;;;4964378;28;20043;-57
2022/05/06 04:52:34;;;;;;;4.40;1.52;;;;;;;;;;4963602;28;20226;-57
2022/05/06 04:55:01;;;;;;;2.28;1.05;;;;;;;;;;4967543;28;20146;-57
2022/05/06 04:57:26;;;;;;;2.75;0.85;;;;;;;;;;4963728;28;20105;-57
2022/05/06 04:59:52;;;;;;;1.90;1.10;;;;;;;;;;4964298;28;20034;-56
2022/05/06 05:02:18;;;;;;;3.97;1.25;;;;;;;;;;4963555;28;20366;-58
2022/05/06 05:04:44;;;;;;;2.60;1.38;;;;;;;;;;4963050;28;20077;-58
2022/05/06 05:07:10;;;;;;;4.88;1.05;;;;;;;;;;4962945;28;20019;-58
2022/05/06 05:09:36;;;;;;;3.53;1.30;;;;;;;;;;4965025;28;20497;-58
2022/05/06 05:12:03;;;;;;;1.90;0.80;;;;;;;;;;4984360;28;20046;-58
2022/05/06 05:14:28;;;;;;;4.20;0.90;;;;;;;;;;4983627;28;20454;-58
2022/05/06 05:16:54;;;;;;;1.77;0.82;;;;;;;;;;4983173;28;20141;-58
2022/05/06 05:19:20;;;;;;;1.80;0.57;;;;;;;;;;4982458;28;20129;-58
2022/05/06 05:21:47;;;;;;;3.85;1.02;;;;;;;;;;4984946;28;20045;-58
2022/05/06 05:24:12;;;;;;;2.55;0.82;;;;;;;;;;4989912;28;20038;-58
2022/05/06 05:26:38;;;;;;;6.38;0.70;;;;;;;;;;4988248;28;20039;-58
2022/05/06 05:29:04;;;;;;;1.27;0.60;;;;;;;;;;4986145;28;20321;-58
2022/05/06 05:31:30;;;;;;;1.65;0.70;;;;;;;;;;4971190;28;20037;-58
2022/05/06 05:33:56;;;;;;;1.10;0.68;;;;;;;;;;4985880;28;20552;-58
2022/05/06 05:36:21;;;;;;;2.03;1.00;;;;;;;;;;4977021;28;20027;-58
2022/05/06 05:38:47;;;;;;;3.42;1.10;;;;;;;;;;4988979;28;20528;-58
2022/05/06 05:41:12;;;;;;;3.53;0.88;;;;;;;;;;4990786;28;20109;-57
2022/05/06 05:49:06;;;;;;;4.95;0.93;;;;;;;;;;4984130;28;20048;-58
2022/05/06 05:51:34;;;;;;;2.08;0.95;;;;;;;;;;4984499;28;20035;-58
2022/05/06 05:54:00;;;;;;;7.05;0.90;;;;;;;;;;4983674;28;20116;-58
2022/05/06 05:56:26;;;;;;;2.00;0.60;;;;;;;;;;4985948;28;20668;-58
2022/05/06 05:58:51;;;;;;;2.53;0.85;;;;;;;;;;4975646;28;20423;-58
2022/05/06 06:01:20;;;;;;;1.83;0.80;;;;;;;;;;4985383;28;20171;-58
2022/05/06 06:03:46;;;;;;;8.43;0.98;;;;;;;;;;4987591;28;20038;-58
2022/05/06 06:06:11;;;;;;;9.07;0.57;;;;;;;;;;4985177;28;20061;-58
2022/05/06 06:08:37;;;;;;;2.10;0.88;;;;;;;;;;4981172;28;20057;-58
2022/05/06 06:11:03;;;;;;;2.75;1.05;;;;;;;;;;4974593;28;20446;-60
2022/05/06 06:13:32;;;;;;;1.80;1.00;;;;;;;;;;4971024;28;20034;-58
2022/05/06 06:15:58;;;;;;;2.63;0.90;;;;;;;;;;4968158;28;20182;-59
2022/05/06 06:18:26;;;;;;;2.97;0.85;;;;;;;;;;4960317;28;20110;-57
2022/05/06 06:20:56;;;;;;;2.65;0.80;;;;;;;;;;4963125;28;20449;-58
2022/05/06 06:23:22;;;;;;;4.90;0.90;;;;;;;;;;4972262;28;20526;-56
2022/05/06 06:25:48;;;;;;;5.72;0.80;;;;;;;;;;4968775;28;20022;-58
2022/05/06 06:28:14;;;;;;;2.95;0.80;;;;;;;;;;4967596;28;20031;-58
2022/05/06 06:30:40;;;;;;;5.45;1.23;;;;;;;;;;4961383;28;20105;-58
2022/05/06 06:33:07;;;;;;;1.90;1.10;;;;;;;;;;4968200;28;20034;-58
2022/05/06 06:35:33;;;;;;;6.47;1.20;;;;;;;;;;4966586;28;20027;-58
2022/05/06 06:38:00;;;;;;;3.83;0.80;;;;;;;;;;4967877;28;20038;-58
2022/05/06 06:40:26;;;;;;;3.40;1.15;;;;;;;;;;4967312;28;20685;-58
2022/05/06 06:42:51;;;;;;;5.05;0.88;;;;;;;;;;4949547;28;20065;-58
2022/05/06 06:45:17;;;;;;;3.55;0.70;;;;;;;;;;5007265;23;20050;-86
2022/05/06 06:47:43;;;;;;;1.23;0.77;;;;;;;;;;4997919;28;20528;-94
2022/05/06 06:50:09;;;;;;;1.63;0.80;;;;;;;;;;4978917;28;20080;-92
2022/05/06 06:52:40;;;;;;;5.53;0.70;;;;;;;;;;4995217;28;20507;-90
2022/05/06 06:55:09;;;;;;;1.30;0.80;;;;;;;;;;4965876;28;20022;-94
2022/05/06 06:57:35;;;;;;;1.05;0.45;;;;;;;;;;4978609;28;20497;-90
2022/05/06 07:00:00;;;;;;;0.98;0.68;;;;;;;;;;4972941;28;20270;-81
2022/05/06 07:02:26;;;;;;;2.22;0.63;;;;;;;;;;4992653;28;20017;-85
2022/05/06 07:05:00;;;;;;;2.88;0.90;;;;;;;;;;4966129;28;20639;-95
2022/05/06 07:12:58;;;;;;;1.75;0.40;;;;;;;;;;5009832;28;20099;-94
2022/05/06 07:15:24;;;;;;;1.65;0.57;;;;;;;;;;4988658;28;20039;-96
2022/05/06 07:17:50;;;;;;;1.75;0.50;;;;;;;;;;4968164;28;20165;-92
2022/05/06 07:20:16;;;;;;;4.82;0.60;;;;;;;;;;4965061;28;20034;-86
2022/05/06 07:22:41;;;;;;;1.58;0.70;;;;;;;;;;5001995;28;20029;-90
2022/05/06 07:25:08;;;;;;;2.15;0.68;;;;;;;;;;4978282;28;20135;-90
2022/05/06 07:27:37;;;;;;;3.30;0.60;;;;;;;;;;4982119;28;20025;-85
2022/05/06 07:30:11;;;;;;;6.05;0.60;;;;;;;;;;4990477;28;20048;-94
2022/05/06 07:32:55;;;;;;;16.30;0.88;;;;;;;;;;5009564;28;20100;-90
2022/05/06 07:35:20;;;;;;;3.17;0.80;;;;;;;;;;4998360;28;20034;-95
2022/05/06 07:37:46;;;;;;;3.97;0.85;;;;;;;;;;5009171;28;20105;-91
2022/05/06 07:40:18;;;;;;;1.45;0.55;;;;;;;;;;5010611;28;20475;-94
2022/05/06 07:42:45;;;;;;;2.08;0.77;;;;;;;;;;4988269;28;20072;-86
2022/05/06 07:45:16;;;;;;;1.77;0.70;;;;;;;;;;5016199;28;20065;-95
2022/05/06 07:47:41;;;;;;;6.10;0.60;;;;;;;;;;5013298;28;20093;-94
2022/05/06 07:50:10;;;;;;;4.45;0.88;;;;;;;;;;4985099;28;20121;-93
2022/05/06 07:52:37;;;;;;;7.57;0.80;;;;;;;;;;5031597;28;20028;-90
2022/05/06 07:55:06;;;;;;;2.10;0.80;;;;;;;;;;5028831;28;20113;-92
2022/05/06 07:57:31;;;;;;;1.80;0.70;;;;;;;;;;5014191;28;20052;-91
2022/05/06 07:59:57;;;;;;;2.78;0.98;;;;;;;;;;5006757;28;20491;-94
2022/05/06 08:05:07;;;;;;;4.40;0.77;;;;;;;;;;5004417;28;20036;-93
2022/05/06 08:07:32;;;;;;;2.47;0.70;;;;;;;;;;5003602;28;20030;-86
2022/05/06 08:09:58;;;;;;;2.55;0.80;;;;;;;;;;5027569;28;20086;-87
2022/05/06 08:12:30;;;;;;;2.50;0.70;;;;;;;;;;4993363;28;20026;-92
2022/05/06 08:15:03;;;;;;;1.80;0.88;;;;;;;;;;4992628;28;20037;-90
2022/05/06 08:17:28;;;;;;;4.68;0.88;;;;;;;;;;4999098;28;20363;-91
2022/05/06 08:19:55;;;;;;;3.58;0.77;;;;;;;;;;5006320;28;20029;-91
2022/05/06 08:22:23;;;;;;;6.65;0.88;;;;;;;;;;5023176;28;20112;-87
2022/05/06 08:24:49;;;;;;;1.00;0.52;;;;;;;;;;4994317;28;20030;-95
2022/05/06 08:27:14;;;;;;;2.15;0.60;;;;;;;;;;5005509;28;20032;-91
2022/05/06 08:29:41;;;;;;;3.85;0.70;;;;;;;;;;4970698;28;20495;-87
2022/05/06 08:32:09;;;;;;;5.25;0.68;;;;;;;;;;5007299;28;20030;-92
2022/05/06 08:34:38;;;;;;;3.28;0.80;;;;;;;;;;5011996;28;20032;-95
2022/05/06 08:37:25;;;;;;;4.57;0.88;;;;;;;;;;5012669;28;20714;-96
2022/05/06 08:39:51;;;;;;;3.20;0.90;;;;;;;;;;4995803;28;20033;-96
2022/05/06 08:42:21;;;;;;;4.03;0.90;;;;;;;;;;5016944;28;20500;-96
2022/05/06 08:53:08;;;;;;;1.77;1.00;;;;;;;;;;5015858;28;20512;-91
2022/05/06 08:55:34;;;;;;;2.92;1.08;;;;;;;;;;5029121;28;20108;-81
2022/05/06 08:57:59;;;;;;;3.90;1.00;;;;;;;;;;4994008;28;20116;-86
2022/05/06 09:00:26;;;;;;;5.90;1.92;;;;;;;;;;4996297;28;20029;-92
2022/05/06 09:02:59;;;;;;;2.97;0.75;;;;;;;;;;5024866;28;20108;-88
2022/05/06 09:05:25;;;;;;;2.22;0.80;;;;;;;;;;4978547;28;20030;-90
2022/05/06 09:08:03;;;;;;;14.85;1.60;;;;;;;;;;4994326;28;20091;-93
2022/05/06 09:10:30;;;;;;;1.35;0.77;;;;;;;;;;4999568;28;20045;-89
2022/05/06 09:12:57;;;;;;;2.00;0.80;;;;;;;;;;4978374;28;20033;-95
2022/05/06 09:18:19;;;;;;;2.85;0.80;;;;;;;;;;5028690;28;20056;-96
2022/05/06 09:20:44;;;;;;;4.72;0.85;;;;;;;;;;5006961;28;20556;-88
2022/05/06 09:23:31;;;;;;;3.53;0.90;;;;;;;;;;4974176;28;20025;-92
2022/05/06 09:25:56;;;;;;;3.40;1.00;;;;;;;;;;5009242;28;20061;-90
2022/05/06 09:28:27;;;;;;;4.95;1.00;;;;;;;;;;4994370;28;20518;-85
2022/05/06 09:31:07;;;;;;;5.32;0.90;;;;;;;;;;5023188;28;20017;-90
2022/05/06 09:33:40;;;;;;;1.77;0.70;;;;;;;;;;5010144;28;20037;-86
2022/05/06 09:36:31;;;;;;;4.85;0.90;;;;;;;;;;5007073;28;20030;-93
2022/05/06 09:39:15;;;;;;;3.78;1.02;;;;;;;;;;5005180;28;20432;-88
2022/05/06 09:41:41;;;;;;;2.15;0.80;;;;;;;;;;5006704;28;20033;-90
2022/05/06 09:44:22;;;;;;;2.85;0.80;;;;;;;;;;4993657;28;20034;-94
2022/05/06 09:47:07;;;;;;;5.90;1.03;;;;;;;;;;5008909;28;20041;-89
2022/05/06 09:49:40;;;;;;;2.45;0.93;;;;;;;;;;5006108;28;20120;-90
2022/05/06 09:52:15;;;;;;;5.95;0.90;;;;;;;;;;5008107;28;20030;-95
2022/05/06 09:54:44;;;;;;;3.22;0.85;;;;;;;;;;5006773;28;20518;-88
2022/05/06 09:57:19;;;;;;;4.07;0.98;;;;;;;;;;5020842;28;20029;-91
2022/05/06 09:59:48;;;;;;;2.95;0.88;;;;;;;;;;5003025;28;20056;-91
2022/05/06 10:02:19;;;;;;;5.40;1.02;;;;;;;;;;5011897;28;20244;-95
2022/05/06 10:04:47;;;;;;;5.57;1.87;;;;;;;;;;5006990;28;20029;-86
2022/05/06 10:07:20;;;;;;;4.25;0.80;;;;;;;;;;5012654;28;20033;-95
2022/05/06 10:10:08;;;;;;;1.33;0.82;;;;;;;;;;5010289;28;20096;-87
2022/05/06 10:12:41;;;;;;;2.28;0.70;;;;;;;;;;4999797;28;20037;-84
2022/05/06 10:15:13;;;;;;;10.85;0.90;;;;;;;;;;5009076;28;20033;-81
2022/05/06 10:17:49;;;;;;;3.35;0.90;;;;;;;;;;5011816;28;20700;-81
2022/05/06 10:20:36;;;;;;;4.40;0.60;;;;;;;;;;5010132;28;20032;-96
2022/05/06 10:23:07;;;;;;;5.28;0.90;;;;;;;;;;5012816;28;20038;-93
2022/05/06 10:25:42;;;;;;;1.85;0.63;;;;;;;;;;5012810;28;20041;-90
2022/05/06 10:34:14;;;;;;;2.97;1.27;;;;;;;;;;5023226;28;20638;-83
2022/05/06 10:36:41;;;;;;;2.58;0.80;;;;;;;;;;4989784;28;20033;-84
2022/05/06 10:39:23;;;;;;;1.13;0.80;;;;;;;;;;5016218;28;20033;-84
2022/05/06 10:42:00;;;;;;;1.20;0.95;;;;;;;;;;5004493;28;20025;-85
2022/05/06 10:44:44;;;;;;;2.60;1.13;;;;;;;;;;5017901;28;20722;-87
2022/05/06 10:47:12;;;;;;;2.22;0.80;;;;;;;;;;5003493;28;20049;-84
2022/05/06 10:49:38;;;;;;;4.53;1.02;;;;;;;;;;5003271;28;20044;-84
2022/05/06 10:52:16;;;;;;;2.58;0.85;;;;;;;;;;5004220;28;20033;-83
2022/05/06 10:54:53;;;;;;;5.97;1.35;;;;;;;;;;5002446;28;20068;-82
2022/05/06 10:57:23;;;;;;;5.32;0.70;;;;;;;;;;4998438;28;20113;-84
2022/05/06 11:00:12;;;;;;;3.45;0.75;;;;;;;;;;5021605;28;20151;-83
2022/05/06 11:02:39;;;;;;;5.50;1.30;;;;;;;;;;4981548;28;20037;-85
2022/05/06 11:05:09;;;;;;;2.80;1.00;;;;;;;;;;5000611;28;20096;-83
2022/05/06 11:07:38;;;;;;;2.38;0.93;;;;;;;;;;5017477;28;20056;-83
2022/05/06 11:10:21;;;;;;;2.78;0.82;;;;;;;;;;5021243;28;20025;-84
2022/05/06 11:12:48;;;;;;;2.60;1.00;;;;;;;;;;5003034;28;20057;-85
2022/05/06 11:15:19;;;;;;;3.95;1.02;;;;;;;;;;5018228;28;20036;-82
2022/05/06 11:17:46;;;;;;;4.45;1.00;;;;;;;;;;5016614;28;20028;-81
2022/05/06 11:20:23;;;;;;;2.75;0.95;;;;;;;;;;4988939;28;20056;-84
2022/05/06 11:23:03;;;;;;;2.72;0.80;;;;;;;;;;5003308;28;20044;-86
2022/05/06 11:25:34;;;;;;;2.03;0.80;;;;;;;;;;5020575;28;20597;-83
2022/05/06 11:28:04;;;;;;;4.90;0.95;;;;;;;;;;5004474;28;20037;-85
2022/05/06 11:30:31;;;;;;;2.17;0.82;;;;;;;;;;5019477;28;20399;-83
2022/05/06 11:33:03;;;;;;;1.30;0.70;;;;;;;;;;4983218;28;20025;-83
2022/05/06 11:35:31;;;;;;;1.45;1.00;;;;;;;;;;5000922;28;20068;-82
2022/05/06 11:38:09;;;;;;;5.15;1.00;;;;;;;;;;5021794;28;20124;-86
2022/05/06 11:40:39;;;;;;;4.57;0.88;;;;;;;;;;5013022;28;20041;-85
2022/05/06 11:43:28;;;;;;;1.42;0.95;;;;;;;;;;4987234;28;20037;-85
2022/05/06 11:48:46;;;;;;;2.60;0.90;;;;;;;;;;5005066;28;20552;-84
2022/05/06 11:51:15;;;;;;;2.88;0.90;;;;;;;;;;5018662;28;20037;-85
2022/05/06 11:53:45;;;;;;;3.10;0.88;;;;;;;;;;5015874;28;20104;-87
2022/05/06 11:56:19;;;;;;;1.48;0.68;;;;;;;;;;5010123;28;20040;-91
2022/05/06 11:58:44;;;;;;;1.55;0.52;;;;;;;;;;5019189;28;20035;-83
2022/05/06 12:01:10;;;;;;;1.10;0.70;;;;;;;;;;4988644;28;20033;-84
2022/05/06 12:03:37;;;;;;;1.63;0.70;;;;;;;;;;4970581;28;20034;-86
2022/05/06 12:06:06;;;;;;;1.73;0.80;;;;;;;;;;5014397;28;20047;-87
2022/05/06 12:08:33;;;;;;;10.13;2.22;;;;;;;;;;5003263;28;20033;-86
2022/05/06 12:11:04;;;;;;;1.48;0.90;;;;;;;;;;5000424;28;20065;-85
2022/05/06 12:13:34;;;;;;;3.08;0.93;;;;;;;;;;4999215;28;20029;-87
2022/05/06 12:16:06;;;;;;;2.60;1.02;;;;;;;;;;5001962;28;20053;-84
2022/05/06 12:18:32;;;;;;;4.10;1.10;;;;;;;;;;5000213;28;20033;-85
2022/05/06 12:20:58;;;;;;;6.82;1.55;;;;;;;;;;5006129;28;20044;-84
2022/05/06 12:23:28;;;;;;;2.60;1.52;;;;;;;;;;4986619;28;20025;-84
2022/05/06 12:25:57;;;;;;;3.83;1.65;;;;;;;;;;5003650;28;20040;-84
2022/05/06 12:28:24;;;;;;;2.72;1.63;;;;;;;;;;5017605;28;20038;-84
2022/05/06 12:30:57;;;;;;;3.83;0.85;;;;;;;;;;4998637;28;20597;-83
2022/05/06 12:33:35;;;;;;;1.00;0.80;;;;;;;;;;5002287;28;20041;-83
2022/05/06 12:36:05;;;;;;;6.50;1.33;;;;;;;;;;5005084;28;20494;-83
2022/05/06 12:38:36;;;;;;;5.07;2.05;;;;;;;;;;5006997;28;20030;-84
2022/05/06 12:41:16;;;;;;;6.65;1.50;;;;;;;;;;5020020;28;20038;-82
2022/05/06 12:43:41;;;;;;;6.28;1.08;;;;;;;;;;4979506;28;20129;-87
2022/05/06 12:46:10;;;;;;;3.10;1.02;;;;;;;;;;4971839;28;20196;-90
2022/05/06 12:51:19;;;;;;;2.30;1.55;;;;;;;;;;5021280;28;20076;-87
2022/05/06 12:53:45;;;;;;;1.23;0.70;;;;;;;;;;4997989;28;20083;-83
2022/05/06 12:56:19;;;;;;;1.50;0.73;;;;;;;;;;4986525;28;20048;-87
2022/05/06 12:58:44;;;;;;;1.98;0.60;;;;;;;;;;5010113;28;20028;-88
2022/05/06 13:01:10;;;;;;;1.00;0.77;;;;;;;;;;5021913;28;20033;-86
2022/05/06 13:03:35;;;;;;;4.70;0.82;;;;;;;;;;4972508;28;20030;-91
2022/05/06 13:06:01;;;;;;;2.53;0.90;;;;;;;;;;4989238;28;20048;-86
2022/05/06 13:08:27;;;;;;;2.47;0.60;;;;;;;;;;5001197;28;20502;-87
2022/05/06 13:10:53;;;;;;;1.75;0.90;;;;;;;;;;5009847;28;20176;-90
2022/05/06 13:13:21;;;;;;;1.33;0.70;;;;;;;;;;5002840;28;20034;-88
2022/05/06 13:15:46;;;;;;;0.70;0.65;;;;;;;;;;5025837;28;20029;-83
2022/05/06 13:18:12;;;;;;;2.40;0.60;;;;;;;;;;4983382;28;20048;-84
2022/05/06 13:20:37;;;;;;;1.73;0.60;;;;;;;;;;5006763;28;20130;-82
2022/05/06 13:23:05;;;;;;;3.95;0.85;;;;;;;;;;4999527;28;20052;-92
2022/05/06 13:25:31;;;;;;;1.52;0.70;;;;;;;;;;4987955;28;20060;-83
2022/05/06 13:27:56;;;;;;;2.55;1.23;;;;;;;;;;4970193;28;20353;-95
2022/05/06 13:30:22;;;;;;;1.95;0.70;;;;;;;;;;4968680;28;20045;-85
2022/05/06 13:32:48;;;;;;;3.28;0.38;;;;;;;;;;4969003;28;20039;-86
2022/05/06 13:35:13;;;;;;;5.55;0.50;;;;;;;;;;4970032;28;20033;-85
2022/05/06 13:37:39;;;;;;;1.98;0.52;;;;;;;;;;4976043;28;20107;-88
2022/05/06 13:40:05;;;;;;;3.92;0.70;;;;;;;;;;4988367;28;20053;-85
2022/05/06 13:42:30;;;;;;;2.40;0.50;;;;;;;;;;5008112;28;20037;-83
2022/05/06 13:44:56;;;;;;;1.48;0.32;;;;;;;;;;5020406;28;20056;-82
2022/05/06 13:47:21;;;;;;;2.75;0.68;;;;;;;;;;5005216;28;20029;-81
2022/05/06 13:49:49;;;;;;;4.75;0.50;;;;;;;;;;5005486;28;20547;-80
2022/05/06 13:52:14;;;;;;;4.63;0.55;;;;;;;;;;5023329;28;20200;-80
2022/05/06 13:54:40;;;;;;;4.07;0.68;;;;;;;;;;4989141;28;20684;-80
2022/05/06 13:59:49;;;;;;;1.50;0.95;;;;;;;;;;5022626;28;20095;-80
2022/05/06 14:02:15;;;;;;;4.10;0.43;;;;;;;;;;4982747;28;20034;-79
2022/05/06 14:04:41;;;;;;;5.93;0.88;;;;;;;;;;4987910;28;20045;-80
2022/05/06 14:07:06;;;;;;;0.88;0.50;;;;;;;;;;5013133;28;20068;-81
2022/05/06 14:09:33;;;;;;;3.42;0.80;;;;;;;;;;4983471;28;20037;-80
2022/05/06 14:11:59;;;;;;;6.25;0.60;;;;;;;;;;4984306;28;20049;-80
2022/05/06 14:14:25;;;;;;;2.95;0.65;;;;;;;;;;4989106;28;20067;-80
2022/05/06 14:16:50;;;;;;;2.00;0.60;;;;;;;;;;4990950;28;20576;-81
2022/05/06 14:19:18;;;;;;;3.60;0.70;;;;;;;;;;4985810;28;20034;-81
2022/05/06 14:21:43;;;;;;;5.20;0.68;;;;;;;;;;5013479;28;20032;-81
2022/05/06 14:24:10;;;;;;;3.67;0.80;;;;;;;;;;4972654;28;20033;-80
2022/05/06 14:26:35;;;;;;;9.57;2.45;;;;;;;;;;5023868;28;20121;-80
2022/05/06 14:29:01;;;;;;;2.42;0.75;;;;;;;;;;5006418;28;20093;-80
2022/05/06 14:31:27;;;;;;;6.28;0.95;;;;;;;;;;4990757;28;20088;-81
2022/05/06 14:33:52;;;;;;;4.55;1.02;;;;;;;;;;5002264;28;20160;-80
2022/05/06 14:36:19;;;;;;;4.90;0.90;;;;;;;;;;4992176;28;20141;-80
2022/05/06 14:38:48;;;;;;;1.58;1.10;;;;;;;;;;5002200;28;20056;-80
2022/05/06 14:41:14;;;;;;;5.65;1.67;;;;;;;;;;5003775;28;20037;-80
2022/05/06 14:43:40;;;;;;;6.72;1.60;;;;;;;;;;5020166;28;20098;-80
2022/05/06 14:46:06;;;;;;;9.50;2.10;;;;;;;;;;4984681;28;20050;-80
2022/05/06 14:48:31;;;;;;;6.68;2.15;;;;;;;;;;5001905;28;20029;-80
2022/05/06 14:50:57;;;;;;;6.57;2.13;;;;;;;;;;4961785;28;20569;-80
2022/05/06 14:53:22;;;;;;;3.92;2.10;;;;;;;;;;5017913;28;20120;-81
2022/05/06 14:55:47;;;;;;;6.72;2.00;;;;;;;;;;4992730;28;20041;-81
2022/05/06 14:58:13;;;;;;;11.07;2.45;;;;;;;;;;5016989;28;20835;-81
2022/05/06 15:00:39;;;;;;;5.40;2.58;;;;;;;;;;5019950;28;20033;-81
2022/05/06 15:03:04;;;;;;;8.95;2.70;;;;;;;;;;5001646;28;20458;-81
2022/05/06 15:05:30;;;;;;;5.95;3.03;;;;;;;;;;4999326;28;20109;-80
2022/05/06 15:07:55;;;;;;;10.45;3.17;;;;;;;;;;4984751;28;20037;-80
2022/05/06 15:10:21;;;;;;;5.82;3.30;;;;;;;;;;5024457;28;20034;-80
2022/05/06 15:12:47;;;;;;;7.88;3.45;;;;;;;;;;4990639;28;20059;-80
2022/05/06 15:15:13;;;;;;;7.15;3.20;;;;;;;;;;5009399;28;20091;-78
2022/05/06 15:17:39;;;;;;;6.43;3.28;;;;;;;;;;5002389;28;20035;-79
2022/05/06 15:20:05;;;;;;;8.40;3.58;;;;;;;;;;4991615;28;20041;-80
2022/05/06 15:22:32;;;;;;;13.50;4.47;;;;;;;;;;4985731;28;20641;-81
2022/05/06 15:24:59;;;;;;;11.07;4.65;;;;;;;;;;4997912;28;20110;-80
2022/05/06 15:27:25;;;;;;;11.45;4.75;;;;;;;;;;4981428;28;20021;-80
2022/05/06 15:29:52;;;;;;;12.07;4.20;;;;;;;;;;5021102;28;20038;-80
2022/05/06 15:32:17;;;;;;;13.20;5.28;;;;;;;;;;5001703;28;20026;-80
2022/05/06 15:34:43;;;;;;;13.90;5.40;;;;;;;;;;5008600;28;20775;-80
2022/05/06 15:37:09;;;;;;;12.02;4.57;;;;;;;;;;4983301;28;20124;-82
2022/05/06 15:39:37;;;;;;;15.30;5.07;;;;;;;;;;4983994;28;20481;-81
2022/05/06 15:42:04;;;;;;;15.35;5.82;;;;;;;;;;4985869;28;20049;-79